Shiro, Texas
Current Conditions -  °F | °C
As of 11:53 PM on Sunday 25 Jan 2015 (Local Time) from KUTS Reporting Station
Clear Clear  
Wind Chill: 55°   Ceiling: Unl
Heat Index: 55°   Visibility: 10mi
Dew Point: 25°   Wind: 9mph
Humidity: 31%   Direction: 310°NW
Pressure: 30.17"   Gusts: NA
Location:  30.61°N, 95.89°W
Report Text: KUTS 260553Z AUTO 31008KT 10SM CLR 13/M04 A3017 RMK AO2 SLP213 T01281039 10178 20122 402110061 51010
Loading
Personal Weather Stations






























Interactive Weather Map New forecast layout! Learn more

10-Day Weather Forecast

Advertisements
Track Severe Weather on mobile